sensor_id;sensor_type;location;lat;lon;timestamp;pressure;altitude;pressure_sealevel;temperature;humidity
24892;BME280;12954;50.688;10.908;2023-02-17T00:00:59;96016.63;;;5.89;58.43
24892;BME280;12954;50.688;10.908;2023-02-17T00:03:28;96014.47;;;5.75;59.06
24892;BME280;12954;50.688;10.908;2023-02-17T00:05:56;96014.94;;;5.72;59.47
24892;BME280;12954;50.688;10.908;2023-02-17T00:08:24;96026.03;;;5.64;59.74
24892;BME280;12954;50.688;10.908;2023-02-17T00:10:55;96007.91;;;5.66;59.69
24892;BME280;12954;50.688;10.908;2023-02-17T00:13:26;95987.72;;;6.03;58.78
24892;BME280;12954;50.688;10.908;2023-02-17T00:15:54;96006.34;;;5.70;59.69
24892;BME280;12954;50.688;10.908;2023-02-17T00:18:22;96002.09;;;5.57;60.18
24892;BME280;12954;50.688;10.908;2023-02-17T00:20:50;96022.16;;;5.43;60.51
24892;BME280;12954;50.688;10.908;2023-02-17T00:23:18;96009.41;;;5.62;60.09
24892;BME280;12954;50.688;10.908;2023-02-17T00:25:47;96036.91;;;5.45;60.31
24892;BME280;12954;50.688;10.908;2023-02-17T00:28:15;96048.34;;;5.29;61.03
24892;BME280;12954;50.688;10.908;2023-02-17T00:30:44;96039.59;;;5.45;60.42
24892;BME280;12954;50.688;10.908;2023-02-17T00:33:13;96051.59;;;5.31;61.10
24892;BME280;12954;50.688;10.908;2023-02-17T00:35:41;96047.88;;;5.32;60.94
24892;BME280;12954;50.688;10.908;2023-02-17T00:38:09;96032.78;;;5.26;61.45
24892;BME280;12954;50.688;10.908;2023-02-17T00:40:37;96024.28;;;5.29;61.07
24892;BME280;12954;50.688;10.908;2023-02-17T00:43:05;96036.25;;;5.38;60.68
24892;BME280;12954;50.688;10.908;2023-02-17T00:45:33;96029.88;;;5.68;60.18
24892;BME280;12954;50.688;10.908;2023-02-17T00:48:03;96025.34;;;5.68;60.05
24892;BME280;12954;50.688;10.908;2023-02-17T00:50:31;96028.16;;;5.62;60.07
24892;BME280;12954;50.688;10.908;2023-02-17T00:52:59;96029.19;;;5.61;60.34
24892;BME280;12954;50.688;10.908;2023-02-17T00:55:27;96027.59;;;5.60;60.37
24892;BME280;12954;50.688;10.908;2023-02-17T00:57:55;96044.13;;;5.56;60.48
24892;BME280;12954;50.688;10.908;2023-02-17T01:00:23;96035.97;;;5.51;60.63
24892;BME280;12954;50.688;10.908;2023-02-17T01:02:52;96033.66;;;5.43;60.70
24892;BME280;12954;50.688;10.908;2023-02-17T01:05:23;96026.09;;;5.52;60.54
24892;BME280;12954;50.688;10.908;2023-02-17T01:07:52;96022.38;;;5.53;60.61
24892;BME280;12954;50.688;10.908;2023-02-17T01:10:20;96011.78;;;5.46;60.81
24892;BME280;12954;50.688;10.908;2023-02-17T01:12:48;96019.47;;;5.43;60.87
24892;BME280;12954;50.688;10.908;2023-02-17T01:15:16;96010.63;;;5.42;61.14
24892;BME280;12954;50.688;10.908;2023-02-17T01:17:45;96003.88;;;5.40;61.02
24892;BME280;12954;50.688;10.908;2023-02-17T01:20:13;96011.78;;;5.46;60.74
24892;BME280;12954;50.688;10.908;2023-02-17T01:22:43;96002.84;;;5.41;60.69
24892;BME280;12954;50.688;10.908;2023-02-17T01:25:12;96018.22;;;5.34;61.12
24892;BME280;12954;50.688;10.908;2023-02-17T01:27:40;96010.34;;;5.27;60.99
24892;BME280;12954;50.688;10.908;2023-02-17T01:30:08;96007.06;;;5.25;61.27
24892;BME280;12954;50.688;10.908;2023-02-17T01:32:37;95998.47;;;5.23;61.35
24892;BME280;12954;50.688;10.908;2023-02-17T01:35:06;95982.53;;;5.28;61.38
24892;BME280;12954;50.688;10.908;2023-02-17T01:37:35;95967.63;;;5.32;61.33
24892;BME280;12954;50.688;10.908;2023-02-17T01:40:05;95965.22;;;5.19;61.42
24892;BME280;12954;50.688;10.908;2023-02-17T01:42:33;95961.41;;;5.15;61.91
24892;BME280;12954;50.688;10.908;2023-02-17T01:47:48;95968.16;;;5.06;62.15
24892;BME280;12954;50.688;10.908;2023-02-17T01:50:20;95960.28;;;4.88;62.65
24892;BME280;12954;50.688;10.908;2023-02-17T01:52:49;95954.41;;;5.14;61.94
24892;BME280;12954;50.688;10.908;2023-02-17T01:55:19;95970.59;;;4.96;63.06
24892;BME280;12954;50.688;10.908;2023-02-17T01:57:50;95958.41;;;5.00;62.61
24892;BME280;12954;50.688;10.908;2023-02-17T02:00:19;95942.91;;;5.14;62.52
24892;BME280;12954;50.688;10.908;2023-02-17T02:02:48;95965.06;;;5.37;62.02
24892;BME280;12954;50.688;10.908;2023-02-17T02:05:17;95967.69;;;5.09;62.69
24892;BME280;12954;50.688;10.908;2023-02-17T02:07:46;95958.66;;;4.87;63.70
24892;BME280;12954;50.688;10.908;2023-02-17T02:10:16;95962.13;;;4.87;64.16
24892;BME280;12954;50.688;10.908;2023-02-17T02:12:46;95970.59;;;4.96;64.64
24892;BME280;12954;50.688;10.908;2023-02-17T02:15:15;95951.22;;;4.89;64.49
24892;BME280;12954;50.688;10.908;2023-02-17T02:17:46;95947.13;;;5.10;63.90
24892;BME280;12954;50.688;10.908;2023-02-17T02:20:26;95958.78;;;4.92;64.75
24892;BME280;12954;50.688;10.908;2023-02-17T02:23:06;95957.38;;;4.89;65.08
24892;BME280;12954;50.688;10.908;2023-02-17T02:25:55;95932.53;;;4.77;65.79
24892;BME280;12954;50.688;10.908;2023-02-17T02:28:32;95928.00;;;4.66;65.90
24892;BME280;12954;50.688;10.908;2023-02-17T02:31:11;95939.84;;;4.82;64.99
24892;BME280;12954;50.688;10.908;2023-02-17T02:33:49;95926.72;;;4.80;65.54
24892;BME280;12954;50.688;10.908;2023-02-17T02:36:18;95929.50;;;4.85;65.41
24892;BME280;12954;50.688;10.908;2023-02-17T02:38:52;95945.06;;;4.88;65.46
24892;BME280;12954;50.688;10.908;2023-02-17T02:41:24;95922.16;;;4.81;65.61
24892;BME280;12954;50.688;10.908;2023-02-17T02:43:55;95932.06;;;4.92;65.58
24892;BME280;12954;50.688;10.908;2023-02-17T02:46:23;95945.44;;;4.80;66.09
24892;BME280;12954;50.688;10.908;2023-02-17T02:48:53;95947.41;;;4.73;66.42
24892;BME280;12954;50.688;10.908;2023-02-17T02:51:29;95945.44;;;4.69;66.63
24892;BME280;12954;50.688;10.908;2023-02-17T02:54:14;95958.19;;;4.90;65.54
24892;BME280;12954;50.688;10.908;2023-02-17T02:56:48;95962.13;;;4.99;65.53
24892;BME280;12954;50.688;10.908;2023-02-17T02:59:22;95959.34;;;4.94;65.93
24892;BME280;12954;50.688;10.908;2023-02-17T03:02:00;95950.84;;;4.97;65.69
24892;BME280;12954;50.688;10.908;2023-02-17T03:04:34;95937.72;;;4.95;65.91
24892;BME280;12954;50.688;10.908;2023-02-17T03:07:04;95942.88;;;4.74;66.82
24892;BME280;12954;50.688;10.908;2023-02-17T03:09:35;95954.03;;;4.71;66.78
24892;BME280;12954;50.688;10.908;2023-02-17T03:12:03;95959.50;;;4.64;67.61
24892;BME280;12954;50.688;10.908;2023-02-17T03:14:34;95959.50;;;4.64;67.28
24892;BME280;12954;50.688;10.908;2023-02-17T03:17:03;95952.19;;;4.71;67.16
24892;BME280;12954;50.688;10.908;2023-02-17T03:19:32;95930.44;;;4.68;67.76
24892;BME280;12954;50.688;10.908;2023-02-17T03:22:04;95921.88;;;4.66;67.56
24892;BME280;12954;50.688;10.908;2023-02-17T03:24:33;95893.59;;;4.81;66.78
24892;BME280;12954;50.688;10.908;2023-02-17T03:27:01;95891.25;;;4.85;66.40
24892;BME280;12954;50.688;10.908;2023-02-17T03:29:29;95882.94;;;5.10;65.64
24892;BME280;12954;50.688;10.908;2023-02-17T03:31:57;95891.19;;;5.08;65.69
24892;BME280;12954;50.688;10.908;2023-02-17T03:34:26;95891.09;;;5.03;66.07
24892;BME280;12954;50.688;10.908;2023-02-17T03:36:55;95888.78;;;5.07;66.02
24892;BME280;12954;50.688;10.908;2023-02-17T03:39:24;95876.69;;;4.92;66.81
24892;BME280;12954;50.688;10.908;2023-02-17T03:41:52;95878.63;;;4.80;67.75
24892;BME280;12954;50.688;10.908;2023-02-17T03:44:21;95886.13;;;4.95;66.88
24892;BME280;12954;50.688;10.908;2023-02-17T03:46:49;95886.72;;;4.85;67.42
24892;BME280;12954;50.688;10.908;2023-02-17T03:49:17;95882.28;;;4.91;67.06
24892;BME280;12954;50.688;10.908;2023-02-17T03:51:45;95872.06;;;4.88;67.36
24892;BME280;12954;50.688;10.908;2023-02-17T03:54:16;95855.00;;;4.89;67.68
24892;BME280;12954;50.688;10.908;2023-02-17T03:56:45;95862.41;;;4.87;68.15
24892;BME280;12954;50.688;10.908;2023-02-17T03:59:14;95870.88;;;4.95;67.46
24892;BME280;12954;50.688;10.908;2023-02-17T04:01:42;95868.31;;;5.00;67.48
24892;BME280;12954;50.688;10.908;2023-02-17T04:04:10;95866.44;;;5.13;67.11
24892;BME280;12954;50.688;10.908;2023-02-17T04:06:38;95858.91;;;5.26;66.47
24892;BME280;12954;50.688;10.908;2023-02-17T04:09:07;95845.66;;;5.03;68.03
24892;BME280;12954;50.688;10.908;2023-02-17T04:11:36;95844.66;;;5.37;66.40
24892;BME280;12954;50.688;10.908;2023-02-17T04:14:05;95835.03;;;5.36;66.48
24892;BME280;12954;50.688;10.908;2023-02-17T04:16:33;95847.19;;;5.27;66.93
24892;BME280;12954;50.688;10.908;2023-02-17T04:19:04;95857.44;;;5.47;66.47
24892;BME280;12954;50.688;10.908;2023-02-17T04:21:33;95861.88;;;5.13;67.71
24892;BME280;12954;50.688;10.908;2023-02-17T04:24:02;95858.63;;;5.11;67.69
24892;BME280;12954;50.688;10.908;2023-02-17T04:26:30;95848.88;;;5.05;68.06
24892;BME280;12954;50.688;10.908;2023-02-17T04:29:01;95867.03;;;5.03;68.13
24892;BME280;12954;50.688;10.908;2023-02-17T04:31:29;95873.97;;;5.16;67.71
24892;BME280;12954;50.688;10.908;2023-02-17T04:33:58;95871.44;;;5.09;68.54
24892;BME280;12954;50.688;10.908;2023-02-17T04:36:26;95853.56;;;4.98;69.13
24892;BME280;12954;50.688;10.908;2023-02-17T04:38:54;95872.28;;;4.98;68.72
24892;BME280;12954;50.688;10.908;2023-02-17T04:41:22;95869.31;;;5.11;67.97
24892;BME280;12954;50.688;10.908;2023-02-17T04:43:50;95885.03;;;5.08;68.45
24892;BME280;12954;50.688;10.908;2023-02-17T04:46:21;95877.38;;;4.99;68.66
24892;BME280;12954;50.688;10.908;2023-02-17T04:48:49;95873.66;;;5.29;67.45
24892;BME280;12954;50.688;10.908;2023-02-17T04:51:18;95882.69;;;5.11;68.50
24892;BME280;12954;50.688;10.908;2023-02-17T04:53:46;95869.63;;;5.26;67.55
24892;BME280;12954;50.688;10.908;2023-02-17T04:56:14;95892.22;;;5.19;68.34
24892;BME280;12954;50.688;10.908;2023-02-17T04:58:42;95864.75;;;5.23;68.10
24892;BME280;12954;50.688;10.908;2023-02-17T05:01:10;95881.84;;;5.22;68.45
24892;BME280;12954;50.688;10.908;2023-02-17T05:03:39;95881.59;;;5.24;68.69
24892;BME280;12954;50.688;10.908;2023-02-17T05:06:07;95876.00;;;5.25;68.32
24892;BME280;12954;50.688;10.908;2023-02-17T05:08:35;95868.72;;;5.21;69.12
24892;BME280;12954;50.688;10.908;2023-02-17T05:11:03;95862.69;;;5.14;69.65
24892;BME280;12954;50.688;10.908;2023-02-17T05:13:31;95858.19;;;5.31;68.22
24892;BME280;12954;50.688;10.908;2023-02-17T05:16:00;95848.31;;;5.31;68.30
24892;BME280;12954;50.688;10.908;2023-02-17T05:18:28;95840.69;;;5.23;68.71
24892;BME280;12954;50.688;10.908;2023-02-17T05:20:57;95836.38;;;5.22;68.61
24892;BME280;12954;50.688;10.908;2023-02-17T05:23:25;95828.94;;;5.24;68.60
24892;BME280;12954;50.688;10.908;2023-02-17T05:25:53;95830.47;;;5.20;69.09
24892;BME280;12954;50.688;10.908;2023-02-17T05:28:21;95834.84;;;5.26;68.76
24892;BME280;12954;50.688;10.908;2023-02-17T05:30:49;95847.25;;;5.32;68.72
24892;BME280;12954;50.688;10.908;2023-02-17T05:33:17;95815.09;;;5.44;67.93
24892;BME280;12954;50.688;10.908;2023-02-17T05:35:45;95804.25;;;5.50;67.68
24892;BME280;12954;50.688;10.908;2023-02-17T05:38:15;95804.53;;;5.37;68.39
24892;BME280;12954;50.688;10.908;2023-02-17T05:40:43;95781.28;;;5.54;67.71
24892;BME280;12954;50.688;10.908;2023-02-17T05:43:12;95769.13;;;5.47;68.42
24892;BME280;12954;50.688;10.908;2023-02-17T05:45:40;95763.84;;;5.52;67.99
24892;BME280;12954;50.688;10.908;2023-02-17T05:48:08;95755.41;;;5.60;68.06
24892;BME280;12954;50.688;10.908;2023-02-17T05:50:36;95736.06;;;5.53;68.44
24892;BME280;12954;50.688;10.908;2023-02-17T05:53:04;95727.50;;;5.73;67.69
24892;BME280;12954;50.688;10.908;2023-02-17T05:55:33;95734.84;;;5.99;66.79
24892;BME280;12954;50.688;10.908;2023-02-17T05:58:01;95716.00;;;5.72;67.87
24892;BME280;12954;50.688;10.908;2023-02-17T06:00:30;95755.59;;;5.70;67.64
24892;BME280;12954;50.688;10.908;2023-02-17T06:02:58;95757.13;;;5.83;67.60
24892;BME280;12954;50.688;10.908;2023-02-17T06:05:26;95762.78;;;5.70;68.05
24892;BME280;12954;50.688;10.908;2023-02-17T06:07:55;95785.91;;;5.59;68.37
24892;BME280;12954;50.688;10.908;2023-02-17T06:10:23;95793.13;;;5.58;68.23
24892;BME280;12954;50.688;10.908;2023-02-17T06:12:52;95783.63;;;5.84;67.46
24892;BME280;12954;50.688;10.908;2023-02-17T06:15:21;95790.88;;;5.67;68.16
24892;BME280;12954;50.688;10.908;2023-02-17T06:17:49;95804.72;;;5.47;68.86
24892;BME280;12954;50.688;10.908;2023-02-17T06:20:17;95804.47;;;5.49;68.75
24892;BME280;12954;50.688;10.908;2023-02-17T06:22:45;95812.16;;;5.45;69.12
24892;BME280;12954;50.688;10.908;2023-02-17T06:25:13;95824.41;;;5.41;69.62
24892;BME280;12954;50.688;10.908;2023-02-17T06:27:41;95836.50;;;5.61;69.51
24892;BME280;12954;50.688;10.908;2023-02-17T06:30:12;95822.81;;;5.74;69.26
24892;BME280;12954;50.688;10.908;2023-02-17T06:32:41;95838.63;;;5.75;69.21
24892;BME280;12954;50.688;10.908;2023-02-17T06:35:10;95827.69;;;5.77;69.27
24892;BME280;12954;50.688;10.908;2023-02-17T06:37:38;95814.38;;;5.82;69.14
24892;BME280;12954;50.688;10.908;2023-02-17T06:40:07;95808.78;;;6.00;68.47
24892;BME280;12954;50.688;10.908;2023-02-17T06:42:35;95810.16;;;5.86;68.67
24892;BME280;12954;50.688;10.908;2023-02-17T06:45:04;95812.38;;;5.89;68.40
24892;BME280;12954;50.688;10.908;2023-02-17T06:47:33;95812.84;;;5.86;68.80
24892;BME280;12954;50.688;10.908;2023-02-17T06:50:02;95819.50;;;6.00;68.12
24892;BME280;12954;50.688;10.908;2023-02-17T06:52:31;95813.47;;;5.93;68.45
24892;BME280;12954;50.688;10.908;2023-02-17T06:54:59;95834.81;;;5.88;68.68
24892;BME280;12954;50.688;10.908;2023-02-17T06:57:27;95812.44;;;5.94;68.37
24892;BME280;12954;50.688;10.908;2023-02-17T06:59:55;95815.56;;;6.07;67.91
24892;BME280;12954;50.688;10.908;2023-02-17T07:02:23;95830.75;;;6.02;68.26
24892;BME280;12954;50.688;10.908;2023-02-17T07:04:53;95818.50;;;6.06;68.20
24892;BME280;12954;50.688;10.908;2023-02-17T07:07:21;95820.47;;;5.94;68.73
24892;BME280;12954;50.688;10.908;2023-02-17T07:09:51;95825.22;;;6.08;68.15
24892;BME280;12954;50.688;10.908;2023-02-17T07:12:25;95846.75;;;5.97;68.33
24892;BME280;12954;50.688;10.908;2023-02-17T07:14:57;95843.50;;;5.95;68.66
24892;BME280;12954;50.688;10.908;2023-02-17T07:17:29;95837.97;;;6.01;68.29
24892;BME280;12954;50.688;10.908;2023-02-17T07:20:00;95838.38;;;5.93;68.83
24892;BME280;12954;50.688;10.908;2023-02-17T07:22:31;95837.66;;;5.98;68.63
24892;BME280;12954;50.688;10.908;2023-02-17T07:25:03;95841.16;;;5.82;69.22
24892;BME280;12954;50.688;10.908;2023-02-17T07:27:33;95826.81;;;6.21;67.92
24892;BME280;12954;50.688;10.908;2023-02-17T07:30:02;95823.88;;;6.06;68.55
24892;BME280;12954;50.688;10.908;2023-02-17T07:32:31;95846.25;;;6.00;68.87
24892;BME280;12954;50.688;10.908;2023-02-17T07:35:01;95848.44;;;6.03;68.77
24892;BME280;12954;50.688;10.908;2023-02-17T07:37:30;95835.88;;;6.03;68.94
24892;BME280;12954;50.688;10.908;2023-02-17T07:39:58;95832.66;;;6.18;68.19
24892;BME280;12954;50.688;10.908;2023-02-17T07:43:00;95828.69;;;6.42;67.45
24892;BME280;12954;50.688;10.908;2023-02-17T07:45:28;95824.19;;;6.26;67.68
24892;BME280;12954;50.688;10.908;2023-02-17T07:47:57;95803.97;;;6.02;68.34
24892;BME280;12954;50.688;10.908;2023-02-17T07:50:26;95802.38;;;6.39;67.73
24892;BME280;12954;50.688;10.908;2023-02-17T07:52:54;95810.69;;;6.38;67.88
24892;BME280;12954;50.688;10.908;2023-02-17T07:55:23;95803.69;;;6.37;67.76
24892;BME280;12954;50.688;10.908;2023-02-17T07:57:51;95703.81;;;5.81;67.34
24892;BME280;12954;50.688;10.908;2023-02-17T08:00:21;95814.19;;;6.38;67.90
24892;BME280;12954;50.688;10.908;2023-02-17T08:02:50;95784.56;;;6.28;67.63
24892;BME280;12954;50.688;10.908;2023-02-17T08:05:20;95809.38;;;6.40;67.71
24892;BME280;12954;50.688;10.908;2023-02-17T08:07:52;95811.56;;;6.43;67.69
24892;BME280;12954;50.688;10.908;2023-02-17T08:10:45;95766.63;;;6.12;68.34
24892;BME280;12954;50.688;10.908;2023-02-17T08:13:37;95796.34;;;6.27;68.48
24892;BME280;12954;50.688;10.908;2023-02-17T08:16:11;95794.13;;;6.41;68.24
24892;BME280;12954;50.688;10.908;2023-02-17T08:18:39;95785.75;;;6.37;68.35
24892;BME280;12954;50.688;10.908;2023-02-17T08:21:10;95585.06;;;5.27;67.72
24892;BME280;12954;50.688;10.908;2023-02-17T08:23:44;95786.13;;;6.67;67.32
24892;BME280;12954;50.688;10.908;2023-02-17T08:26:18;95782.56;;;6.40;67.91
24892;BME280;12954;50.688;10.908;2023-02-17T08:28:47;95790.81;;;6.55;67.92
24892;BME280;12954;50.688;10.908;2023-02-17T08:31:21;95780.72;;;6.41;67.90
24892;BME280;12954;50.688;10.908;2023-02-17T08:33:51;95790.53;;;6.57;68.02
24892;BME280;12954;50.688;10.908;2023-02-17T08:36:23;95800.97;;;6.53;68.21
24892;BME280;12954;50.688;10.908;2023-02-17T08:38:56;95768.88;;;6.58;67.98
24892;BME280;12954;50.688;10.908;2023-02-17T08:41:28;95773.09;;;6.54;68.13
24892;BME280;12954;50.688;10.908;2023-02-17T08:43:58;95762.34;;;6.71;67.60
24892;BME280;12954;50.688;10.908;2023-02-17T08:46:30;95761.84;;;6.74;67.17
24892;BME280;12954;50.688;10.908;2023-02-17T08:49:00;95761.00;;;6.74;67.46
24892;BME280;12954;50.688;10.908;2023-02-17T08:51:28;95763.00;;;6.61;67.90
24892;BME280;12954;50.688;10.908;2023-02-17T08:53:58;95760.28;;;6.56;68.22
24892;BME280;12954;50.688;10.908;2023-02-17T08:56:28;95750.56;;;6.50;68.25
24892;BME280;12954;50.688;10.908;2023-02-17T08:58:58;95748.56;;;6.62;67.89
24892;BME280;12954;50.688;10.908;2023-02-17T09:01:30;95767.38;;;6.67;68.03
24892;BME280;12954;50.688;10.908;2023-02-17T09:04:02;95783.16;;;6.64;67.83
24892;BME280;12954;50.688;10.908;2023-02-17T09:06:34;95777.84;;;6.69;68.13
24892;BME280;12954;50.688;10.908;2023-02-17T09:09:05;95762.94;;;6.78;67.69
24892;BME280;12954;50.688;10.908;2023-02-17T09:11:36;95755.88;;;6.94;67.10
24892;BME280;12954;50.688;10.908;2023-02-17T09:14:05;95740.75;;;6.61;67.10
24892;BME280;12954;50.688;10.908;2023-02-17T09:16:36;95787.19;;;6.88;67.43
24892;BME280;12954;50.688;10.908;2023-02-17T09:19:10;95790.19;;;6.92;67.66
24892;BME280;12954;50.688;10.908;2023-02-17T09:21:44;95800.19;;;7.01;67.48
24892;BME280;12954;50.688;10.908;2023-02-17T09:24:13;95799.31;;;6.96;67.45
24892;BME280;12954;50.688;10.908;2023-02-17T09:26:42;95796.25;;;7.09;67.19
24892;BME280;12954;50.688;10.908;2023-02-17T09:29:10;95806.50;;;7.12;67.25
24892;BME280;12954;50.688;10.908;2023-02-17T09:31:40;95690.97;;;6.43;66.91
24892;BME280;12954;50.688;10.908;2023-02-17T09:34:10;95772.81;;;7.26;66.75
24892;BME280;12954;50.688;10.908;2023-02-17T09:36:40;95715.44;;;6.74;66.44
24892;BME280;12954;50.688;10.908;2023-02-17T09:39:09;95764.50;;;7.27;66.58
24892;BME280;12954;50.688;10.908;2023-02-17T09:41:42;95758.72;;;7.09;66.78
24892;BME280;12954;50.688;10.908;2023-02-17T09:44:21;95767.81;;;7.35;66.54
24892;BME280;12954;50.688;10.908;2023-02-17T09:46:58;95737.50;;;7.39;66.28
24892;BME280;12954;50.688;10.908;2023-02-17T09:49:34;95749.88;;;7.40;66.26
24892;BME280;12954;50.688;10.908;2023-02-17T09:52:08;95776.66;;;7.35;66.65
24892;BME280;12954;50.688;10.908;2023-02-17T09:54:45;95651.25;;;6.89;65.91
24892;BME280;12954;50.688;10.908;2023-02-17T09:57:19;95752.59;;;7.45;66.45
24892;BME280;12954;50.688;10.908;2023-02-17T09:59:54;95755.88;;;7.52;66.40
24892;BME280;12954;50.688;10.908;2023-02-17T10:02:30;95776.84;;;7.55;66.37
24892;BME280;12954;50.688;10.908;2023-02-17T10:05:06;95739.44;;;7.44;66.25
24892;BME280;12954;50.688;10.908;2023-02-17T10:07:41;95749.63;;;7.73;65.91
24892;BME280;12954;50.688;10.908;2023-02-17T10:10:17;95764.63;;;7.69;66.26
24892;BME280;12954;50.688;10.908;2023-02-17T10:12:50;95762.50;;;7.71;66.40
24892;BME280;12954;50.688;10.908;2023-02-17T10:15:24;95770.00;;;7.69;66.29
24892;BME280;12954;50.688;10.908;2023-02-17T10:17:59;95767.09;;;7.76;66.25
24892;BME280;12954;50.688;10.908;2023-02-17T10:20:34;95760.25;;;7.63;66.04
24892;BME280;12954;50.688;10.908;2023-02-17T10:23:12;95781.34;;;7.76;65.98
24892;BME280;12954;50.688;10.908;2023-02-17T10:26:02;95804.00;;;7.59;66.91
24892;BME280;12954;50.688;10.908;2023-02-17T10:28:48;95786.94;;;7.43;67.55
24892;BME280;12954;50.688;10.908;2023-02-17T10:31:30;95773.41;;;7.33;66.92
24892;BME280;12954;50.688;10.908;2023-02-17T10:34:23;95760.88;;;7.39;68.08
24892;BME280;12954;50.688;10.908;2023-02-17T10:37:04;95777.63;;;7.24;68.61
24892;BME280;12954;50.688;10.908;2023-02-17T10:39:49;95806.44;;;7.34;68.34
24892;BME280;12954;50.688;10.908;2023-02-17T10:42:25;95719.47;;;7.30;68.09
24892;BME280;12954;50.688;10.908;2023-02-17T10:44:59;95763.75;;;7.32;68.06
24892;BME280;12954;50.688;10.908;2023-02-17T10:47:29;95778.53;;;7.35;68.57
24892;BME280;12954;50.688;10.908;2023-02-17T10:50:03;95754.13;;;7.36;68.52
24892;BME280;12954;50.688;10.908;2023-02-17T10:52:37;95777.91;;;7.54;67.84
24892;BME280;12954;50.688;10.908;2023-02-17T10:55:10;95763.41;;;7.55;67.30
24892;BME280;12954;50.688;10.908;2023-02-17T10:57:53;95721.06;;;7.31;66.81
24892;BME280;12954;50.688;10.908;2023-02-17T11:00:22;95762.75;;;7.38;67.52
24892;BME280;12954;50.688;10.908;2023-02-17T11:02:53;95753.81;;;7.59;67.06
24892;BME280;12954;50.688;10.908;2023-02-17T11:05:26;95764.63;;;7.69;66.97
24892;BME280;12954;50.688;10.908;2023-02-17T11:07:59;95761.97;;;7.43;67.82
24892;BME280;12954;50.688;10.908;2023-02-17T11:10:30;95776.31;;;7.53;67.83
24892;BME280;12954;50.688;10.908;2023-02-17T11:13:00;95770.94;;;7.53;67.77
24892;BME280;12954;50.688;10.908;2023-02-17T11:15:33;95768.91;;;7.39;68.57
24892;BME280;12954;50.688;10.908;2023-02-17T11:18:09;95758.75;;;7.46;68.51
24892;BME280;12954;50.688;10.908;2023-02-17T11:20:40;95782.03;;;7.35;68.98
24892;BME280;12954;50.688;10.908;2023-02-17T11:23:23;95751.06;;;7.54;68.43
24892;BME280;12954;50.688;10.908;2023-02-17T11:25:58;95751.06;;;7.54;68.58
24892;BME280;12954;50.688;10.908;2023-02-17T11:28:27;95768.78;;;7.55;68.47
24892;BME280;12954;50.688;10.908;2023-02-17T11:30:57;95760.69;;;7.77;67.79
24892;BME280;12954;50.688;10.908;2023-02-17T11:33:31;95717.75;;;7.50;68.46
24892;BME280;12954;50.688;10.908;2023-02-17T11:36:04;95743.63;;;7.66;68.62
24892;BME280;12954;50.688;10.908;2023-02-17T11:38:42;95737.28;;;7.46;68.89
24892;BME280;12954;50.688;10.908;2023-02-17T11:41:11;95749.34;;;7.43;69.52
24892;BME280;12954;50.688;10.908;2023-02-17T11:43:50;95758.94;;;7.66;68.96
24892;BME280;12954;50.688;10.908;2023-02-17T11:46:24;95725.91;;;7.65;68.79
24892;BME280;12954;50.688;10.908;2023-02-17T11:55:17;95713.78;;;7.63;69.32
24892;BME280;12954;50.688;10.908;2023-02-17T11:57:56;95713.25;;;7.61;69.35
24892;BME280;12954;50.688;10.908;2023-02-17T12:00:33;95723.63;;;7.47;70.21
24892;BME280;12954;50.688;10.908;2023-02-17T12:03:29;95715.69;;;7.62;69.76
24892;BME280;12954;50.688;10.908;2023-02-17T12:06:13;95724.50;;;7.58;69.90
24892;BME280;12954;50.688;10.908;2023-02-17T12:08:52;95714.84;;;7.89;68.87
24892;BME280;12954;50.688;10.908;2023-02-17T12:11:30;95712.03;;;7.73;69.62
24892;BME280;12954;50.688;10.908;2023-02-17T12:14:13;95650.78;;;7.34;69.68
24892;BME280;12954;50.688;10.908;2023-02-17T12:16:52;95690.38;;;7.90;69.51
24892;BME280;12954;50.688;10.908;2023-02-17T12:19:30;95696.28;;;7.92;69.58
24892;BME280;12954;50.688;10.908;2023-02-17T12:22:15;95683.19;;;8.01;69.47
24892;BME280;12954;50.688;10.908;2023-02-17T12:25:07;95684.06;;;8.16;68.49
24892;BME280;12954;50.688;10.908;2023-02-17T12:27:50;95655.09;;;8.28;68.44
24892;BME280;12954;50.688;10.908;2023-02-17T12:30:34;95650.56;;;8.39;68.11
24892;BME280;12954;50.688;10.908;2023-02-17T12:33:16;95652.94;;;8.30;68.78
24892;BME280;12954;50.688;10.908;2023-02-17T12:35:52;95652.75;;;8.57;67.70
24892;BME280;12954;50.688;10.908;2023-02-17T12:38:24;95681.28;;;8.58;67.92
24892;BME280;12954;50.688;10.908;2023-02-17T12:41:00;95643.63;;;8.63;67.66
24892;BME280;12954;50.688;10.908;2023-02-17T12:43:35;95683.78;;;8.90;66.36
24892;BME280;12954;50.688;10.908;2023-02-17T12:46:07;95679.69;;;8.77;66.82
24892;BME280;12954;50.688;10.908;2023-02-17T12:48:38;95680.25;;;8.89;66.23
24892;BME280;12954;50.688;10.908;2023-02-17T12:51:11;95667.91;;;8.93;65.08
24892;BME280;12954;50.688;10.908;2023-02-17T12:53:46;95686.19;;;8.81;66.13
24892;BME280;12954;50.688;10.908;2023-02-17T12:56:47;95687.75;;;8.72;66.38
24892;BME280;12954;50.688;10.908;2023-02-17T12:59:19;95672.91;;;8.50;67.67
24892;BME280;12954;50.688;10.908;2023-02-17T13:02:02;95685.59;;;8.69;67.16
24892;BME280;12954;50.688;10.908;2023-02-17T13:04:33;95696.13;;;8.76;66.88
24892;BME280;12954;50.688;10.908;2023-02-17T13:07:15;95659.78;;;8.68;66.68
24892;BME280;12954;50.688;10.908;2023-02-17T13:09:48;95679.53;;;9.14;64.99
24892;BME280;12954;50.688;10.908;2023-02-17T13:12:32;95673.81;;;8.90;65.86
24892;BME280;12954;50.688;10.908;2023-02-17T13:15:01;95698.56;;;8.87;66.15
24892;BME280;12954;50.688;10.908;2023-02-17T13:17:32;95633.41;;;8.55;65.99
24892;BME280;12954;50.688;10.908;2023-02-17T13:23:13;95676.72;;;8.69;66.50
24892;BME280;12954;50.688;10.908;2023-02-17T13:29:18;95700.16;;;8.83;66.42
24892;BME280;12954;50.688;10.908;2023-02-17T13:31:51;95687.56;;;8.94;66.51
24892;BME280;12954;50.688;10.908;2023-02-17T13:34:29;95678.13;;;8.97;66.38
24892;BME280;12954;50.688;10.908;2023-02-17T13:37:12;95678.09;;;8.86;66.12
24892;BME280;12954;50.688;10.908;2023-02-17T13:39:42;95683.78;;;8.90;66.40